sensor_id;sensor_type;location;lat;lon;timestamp;P1;durP1;ratioP1;P2;durP2;ratioP2
77012;SDS011;67260;53.130;17.982;2023-02-26T00:01:16;4.60;;;1.20;;
77012;SDS011;67260;53.130;17.982;2023-02-26T00:03:48;3.00;;;1.00;;
77012;SDS011;67260;53.130;17.982;2023-02-26T00:06:16;4.30;;;1.10;;
77012;SDS011;67260;53.130;17.982;2023-02-26T00:08:43;4.20;;;1.50;;
77012;SDS011;67260;53.130;17.982;2023-02-26T00:11:10;2.80;;;0.80;;
77012;SDS011;67260;53.130;17.982;2023-02-26T00:13:39;4.00;;;1.10;;
77012;SDS011;67260;53.130;17.982;2023-02-26T00:16:12;4.60;;;1.60;;
77012;SDS011;67260;53.130;17.982;2023-02-26T00:19:01;2.70;;;1.00;;
77012;SDS011;67260;53.130;17.982;2023-02-26T00:21:30;3.40;;;1.00;;
77012;SDS011;67260;53.130;17.982;2023-02-26T00:23:58;3.50;;;0.90;;
77012;SDS011;67260;53.130;17.982;2023-02-26T00:26:28;3.40;;;1.20;;
77012;SDS011;67260;53.130;17.982;2023-02-26T00:28:56;1.80;;;0.70;;
77012;SDS011;67260;53.130;17.982;2023-02-26T00:31:24;2.10;;;0.70;;
77012;SDS011;67260;53.130;17.982;2023-02-26T00:33:51;3.50;;;0.90;;
77012;SDS011;67260;53.130;17.982;2023-02-26T00:39:14;2.30;;;0.80;;
77012;SDS011;67260;53.130;17.982;2023-02-26T00:41:40;1.90;;;0.80;;
77012;SDS011;67260;53.130;17.982;2023-02-26T00:44:07;2.30;;;0.70;;
77012;SDS011;67260;53.130;17.982;2023-02-26T00:46:37;2.50;;;0.80;;
77012;SDS011;67260;53.130;17.982;2023-02-26T00:52:12;2.40;;;0.90;;
77012;SDS011;67260;53.130;17.982;2023-02-26T00:54:45;2.80;;;0.90;;
77012;SDS011;67260;53.130;17.982;2023-02-26T00:57:14;2.70;;;0.90;;
77012;SDS011;67260;53.130;17.982;2023-02-26T00:59:41;1.80;;;0.90;;
77012;SDS011;67260;53.130;17.982;2023-02-26T01:02:07;2.20;;;0.80;;
77012;SDS011;67260;53.130;17.982;2023-02-26T01:04:34;1.90;;;0.70;;
77012;SDS011;67260;53.130;17.982;2023-02-26T01:07:01;2.30;;;0.60;;
77012;SDS011;67260;53.130;17.982;2023-02-26T01:09:30;1.10;;;0.60;;
77012;SDS011;67260;53.130;17.982;2023-02-26T01:12:06;1.70;;;0.60;;
77012;SDS011;67260;53.130;17.982;2023-02-26T01:14:35;3.10;;;0.70;;
77012;SDS011;67260;53.130;17.982;2023-02-26T01:19:52;2.00;;;0.60;;
77012;SDS011;67260;53.130;17.982;2023-02-26T01:22:39;2.50;;;0.70;;
77012;SDS011;67260;53.130;17.982;2023-02-26T01:28:14;1.70;;;0.70;;
77012;SDS011;67260;53.130;17.982;2023-02-26T01:30:41;1.40;;;0.40;;
77012;SDS011;67260;53.130;17.982;2023-02-26T01:33:13;0.60;;;0.30;;
77012;SDS011;67260;53.130;17.982;2023-02-26T01:46:56;2.30;;;0.50;;
77012;SDS011;67260;53.130;17.982;2023-02-26T01:49:26;1.20;;;0.50;;
77012;SDS011;67260;53.130;17.982;2023-02-26T01:51:54;0.40;;;0.40;;
77012;SDS011;67260;53.130;17.982;2023-02-26T01:54:33;1.70;;;0.60;;
77012;SDS011;67260;53.130;17.982;2023-02-26T01:57:03;2.50;;;0.70;;
77012;SDS011;67260;53.130;17.982;2023-02-26T01:59:42;1.10;;;0.60;;
77012;SDS011;67260;53.130;17.982;2023-02-26T02:02:12;2.20;;;0.80;;
77012;SDS011;67260;53.130;17.982;2023-02-26T02:04:43;2.30;;;0.60;;
77012;SDS011;67260;53.130;17.982;2023-02-26T02:07:10;1.10;;;0.40;;
77012;SDS011;67260;53.130;17.982;2023-02-26T02:15:03;2.50;;;0.70;;
77012;SDS011;67260;53.130;17.982;2023-02-26T02:17:42;1.90;;;0.70;;
77012;SDS011;67260;53.130;17.982;2023-02-26T02:20:21;1.90;;;0.60;;
77012;SDS011;67260;53.130;17.982;2023-02-26T02:31:35;3.40;;;0.70;;
77012;SDS011;67260;53.130;17.982;2023-02-26T02:34:11;1.80;;;0.70;;
77012;SDS011;67260;53.130;17.982;2023-02-26T02:36:47;0.70;;;0.40;;
77012;SDS011;67260;53.130;17.982;2023-02-26T02:41:49;2.20;;;0.70;;
77012;SDS011;67260;53.130;17.982;2023-02-26T02:44:20;1.10;;;0.50;;
77012;SDS011;67260;53.130;17.982;2023-02-26T02:46:52;1.50;;;0.60;;
77012;SDS011;67260;53.130;17.982;2023-02-26T02:49:23;2.40;;;0.80;;
77012;SDS011;67260;53.130;17.982;2023-02-26T02:52:07;2.00;;;0.60;;
77012;SDS011;67260;53.130;17.982;2023-02-26T02:54:44;3.40;;;1.10;;
77012;SDS011;67260;53.130;17.982;2023-02-26T02:57:18;3.90;;;1.10;;
77012;SDS011;67260;53.130;17.982;2023-02-26T02:59:49;3.00;;;1.00;;
77012;SDS011;67260;53.130;17.982;2023-02-26T03:07:48;1.20;;;0.60;;
77012;SDS011;67260;53.130;17.982;2023-02-26T03:10:18;0.80;;;0.40;;
77012;SDS011;67260;53.130;17.982;2023-02-26T03:12:45;1.00;;;0.50;;
77012;SDS011;67260;53.130;17.982;2023-02-26T03:17:50;0.90;;;0.30;;
77012;SDS011;67260;53.130;17.982;2023-02-26T03:20:33;1.70;;;0.50;;
77012;SDS011;67260;53.130;17.982;2023-02-26T03:28:28;1.70;;;0.50;;
77012;SDS011;67260;53.130;17.982;2023-02-26T03:31:04;1.70;;;0.70;;
77012;SDS011;67260;53.130;17.982;2023-02-26T03:33:58;2.30;;;0.70;;
77012;SDS011;67260;53.130;17.982;2023-02-26T03:36:32;1.50;;;0.80;;
77012;SDS011;67260;53.130;17.982;2023-02-26T03:39:40;1.40;;;0.60;;
77012;SDS011;67260;53.130;17.982;2023-02-26T03:42:19;1.40;;;0.70;;
77012;SDS011;67260;53.130;17.982;2023-02-26T03:44:55;2.30;;;0.80;;
77012;SDS011;67260;53.130;17.982;2023-02-26T03:47:26;2.10;;;0.60;;
77012;SDS011;67260;53.130;17.982;2023-02-26T03:52:47;2.20;;;0.70;;
77012;SDS011;67260;53.130;17.982;2023-02-26T03:55:25;1.50;;;0.60;;
77012;SDS011;67260;53.130;17.982;2023-02-26T03:58:05;1.50;;;0.30;;
77012;SDS011;67260;53.130;17.982;2023-02-26T04:00:40;1.30;;;0.40;;
77012;SDS011;67260;53.130;17.982;2023-02-26T04:03:43;1.30;;;0.40;;
77012;SDS011;67260;53.130;17.982;2023-02-26T04:06:07;1.90;;;0.60;;
77012;SDS011;67260;53.130;17.982;2023-02-26T04:11:05;1.00;;;0.40;;
77012;SDS011;67260;53.130;17.982;2023-02-26T04:13:36;1.90;;;0.50;;
77012;SDS011;67260;53.130;17.982;2023-02-26T04:16:03;2.30;;;0.70;;
77012;SDS011;67260;53.130;17.982;2023-02-26T04:18:31;1.40;;;0.70;;
77012;SDS011;67260;53.130;17.982;2023-02-26T04:20:57;1.20;;;0.60;;
77012;SDS011;67260;53.130;17.982;2023-02-26T04:25:51;1.40;;;0.60;;
77012;SDS011;67260;53.130;17.982;2023-02-26T04:28:18;1.80;;;0.70;;
77012;SDS011;67260;53.130;17.982;2023-02-26T04:30:46;1.10;;;0.60;;
77012;SDS011;67260;53.130;17.982;2023-02-26T04:33:13;2.00;;;0.70;;
77012;SDS011;67260;53.130;17.982;2023-02-26T04:35:41;1.30;;;0.60;;
77012;SDS011;67260;53.130;17.982;2023-02-26T04:38:09;2.50;;;0.40;;
77012;SDS011;67260;53.130;17.982;2023-02-26T04:43:02;2.70;;;0.80;;
77012;SDS011;67260;53.130;17.982;2023-02-26T04:45:32;1.40;;;0.50;;
77012;SDS011;67260;53.130;17.982;2023-02-26T04:47:59;2.70;;;0.80;;
77012;SDS011;67260;53.130;17.982;2023-02-26T04:50:26;1.40;;;0.50;;
77012;SDS011;67260;53.130;17.982;2023-02-26T04:52:53;1.70;;;0.50;;
77012;SDS011;67260;53.130;17.982;2023-02-26T04:55:20;2.70;;;0.90;;
77012;SDS011;67260;53.130;17.982;2023-02-26T04:57:46;1.10;;;0.40;;
77012;SDS011;67260;53.130;17.982;2023-02-26T05:02:41;1.90;;;0.60;;
77012;SDS011;67260;53.130;17.982;2023-02-26T05:07:34;1.90;;;0.50;;
77012;SDS011;67260;53.130;17.982;2023-02-26T05:10:02;2.50;;;0.80;;
77012;SDS011;67260;53.130;17.982;2023-02-26T05:12:29;2.90;;;1.10;;
77012;SDS011;67260;53.130;17.982;2023-02-26T05:14:56;5.40;;;1.40;;
77012;SDS011;67260;53.130;17.982;2023-02-26T05:19:49;2.70;;;0.80;;
77012;SDS011;67260;53.130;17.982;2023-02-26T05:22:17;3.70;;;1.10;;
77012;SDS011;67260;53.130;17.982;2023-02-26T05:24:44;4.70;;;0.80;;
77012;SDS011;67260;53.130;17.982;2023-02-26T05:27:11;3.80;;;1.00;;
77012;SDS011;67260;53.130;17.982;2023-02-26T05:29:41;4.80;;;1.00;;
77012;SDS011;67260;53.130;17.982;2023-02-26T05:32:10;3.50;;;1.00;;
77012;SDS011;67260;53.130;17.982;2023-02-26T05:34:37;1.50;;;0.70;;
77012;SDS011;67260;53.130;17.982;2023-02-26T05:37:04;1.60;;;0.60;;
77012;SDS011;67260;53.130;17.982;2023-02-26T05:41:57;1.30;;;0.70;;
77012;SDS011;67260;53.130;17.982;2023-02-26T05:44:24;1.50;;;0.60;;
77012;SDS011;67260;53.130;17.982;2023-02-26T05:46:51;1.80;;;0.80;;
77012;SDS011;67260;53.130;17.982;2023-02-26T05:49:18;3.40;;;0.80;;
77012;SDS011;67260;53.130;17.982;2023-02-26T05:51:45;1.30;;;0.60;;
77012;SDS011;67260;53.130;17.982;2023-02-26T05:54:11;1.70;;;0.60;;
77012;SDS011;67260;53.130;17.982;2023-02-26T05:56:38;2.50;;;0.80;;
77012;SDS011;67260;53.130;17.982;2023-02-26T05:59:05;1.90;;;0.70;;
77012;SDS011;67260;53.130;17.982;2023-02-26T06:01:32;2.30;;;0.80;;
77012;SDS011;67260;53.130;17.982;2023-02-26T06:03:59;2.40;;;0.80;;
77012;SDS011;67260;53.130;17.982;2023-02-26T06:06:26;2.80;;;0.70;;
77012;SDS011;67260;53.130;17.982;2023-02-26T06:08:52;4.70;;;0.90;;
77012;SDS011;67260;53.130;17.982;2023-02-26T06:11:19;2.50;;;0.80;;
77012;SDS011;67260;53.130;17.982;2023-02-26T06:13:46;3.20;;;1.10;;
77012;SDS011;67260;53.130;17.982;2023-02-26T06:16:14;3.50;;;1.00;;
77012;SDS011;67260;53.130;17.982;2023-02-26T06:18:41;1.50;;;0.80;;
77012;SDS011;67260;53.130;17.982;2023-02-26T06:23:34;2.10;;;0.90;;
77012;SDS011;67260;53.130;17.982;2023-02-26T06:26:01;2.00;;;0.90;;
77012;SDS011;67260;53.130;17.982;2023-02-26T06:30:55;2.50;;;0.80;;
77012;SDS011;67260;53.130;17.982;2023-02-26T06:33:21;4.00;;;1.20;;
77012;SDS011;67260;53.130;17.982;2023-02-26T06:35:48;3.60;;;1.20;;
77012;SDS011;67260;53.130;17.982;2023-02-26T06:38:16;4.40;;;1.20;;
77012;SDS011;67260;53.130;17.982;2023-02-26T06:40:43;4.70;;;1.60;;
77012;SDS011;67260;53.130;17.982;2023-02-26T06:43:11;3.10;;;1.20;;
77012;SDS011;67260;53.130;17.982;2023-02-26T06:45:37;2.10;;;0.80;;
77012;SDS011;67260;53.130;17.982;2023-02-26T06:48:04;2.40;;;1.00;;
77012;SDS011;67260;53.130;17.982;2023-02-26T06:50:31;3.90;;;1.40;;
77012;SDS011;67260;53.130;17.982;2023-02-26T06:52:58;2.70;;;1.00;;
77012;SDS011;67260;53.130;17.982;2023-02-26T06:55:25;5.00;;;1.60;;
77012;SDS011;67260;53.130;17.982;2023-02-26T06:57:55;2.50;;;0.80;;
77012;SDS011;67260;53.130;17.982;2023-02-26T07:00:24;2.90;;;1.10;;
77012;SDS011;67260;53.130;17.982;2023-02-26T07:02:51;4.60;;;1.20;;
77012;SDS011;67260;53.130;17.982;2023-02-26T07:05:18;4.20;;;1.50;;
77012;SDS011;67260;53.130;17.982;2023-02-26T07:07:46;5.10;;;1.40;;
77012;SDS011;67260;53.130;17.982;2023-02-26T07:10:12;4.00;;;0.90;;
77012;SDS011;67260;53.130;17.982;2023-02-26T07:12:39;4.00;;;1.10;;
77012;SDS011;67260;53.130;17.982;2023-02-26T07:15:06;4.10;;;1.50;;
77012;SDS011;67260;53.130;17.982;2023-02-26T07:17:33;2.30;;;0.70;;
77012;SDS011;67260;53.130;17.982;2023-02-26T07:20:00;2.80;;;1.10;;
77012;SDS011;67260;53.130;17.982;2023-02-26T07:22:31;3.10;;;1.10;;
77012;SDS011;67260;53.130;17.982;2023-02-26T07:24:59;2.30;;;1.10;;
77012;SDS011;67260;53.130;17.982;2023-02-26T07:27:26;3.90;;;1.30;;
77012;SDS011;67260;53.130;17.982;2023-02-26T07:29:53;5.30;;;1.80;;
77012;SDS011;67260;53.130;17.982;2023-02-26T07:32:19;5.90;;;1.90;;
77012;SDS011;67260;53.130;17.982;2023-02-26T07:34:47;4.60;;;1.20;;
77012;SDS011;67260;53.130;17.982;2023-02-26T07:37:13;7.10;;;1.90;;
77012;SDS011;67260;53.130;17.982;2023-02-26T07:39:40;6.00;;;1.50;;
77012;SDS011;67260;53.130;17.982;2023-02-26T07:42:07;5.10;;;1.70;;
77012;SDS011;67260;53.130;17.982;2023-02-26T07:44:34;4.30;;;1.20;;
77012;SDS011;67260;53.130;17.982;2023-02-26T07:47:01;3.90;;;1.70;;
77012;SDS011;67260;53.130;17.982;2023-02-26T07:49:28;5.30;;;1.80;;
77012;SDS011;67260;53.130;17.982;2023-02-26T07:51:55;4.40;;;1.40;;
77012;SDS011;67260;53.130;17.982;2023-02-26T07:54:22;4.20;;;1.40;;
77012;SDS011;67260;53.130;17.982;2023-02-26T07:56:49;4.30;;;1.70;;
77012;SDS011;67260;53.130;17.982;2023-02-26T07:59:16;3.60;;;1.60;;
77012;SDS011;67260;53.130;17.982;2023-02-26T08:04:09;5.70;;;2.40;;
77012;SDS011;67260;53.130;17.982;2023-02-26T08:06:36;4.40;;;1.40;;
77012;SDS011;67260;53.130;17.982;2023-02-26T08:09:02;7.80;;;1.50;;
77012;SDS011;67260;53.130;17.982;2023-02-26T08:11:29;7.00;;;1.80;;
77012;SDS011;67260;53.130;17.982;2023-02-26T08:13:58;6.90;;;1.70;;
77012;SDS011;67260;53.130;17.982;2023-02-26T08:16:24;6.10;;;2.00;;
77012;SDS011;67260;53.130;17.982;2023-02-26T08:18:51;7.20;;;1.90;;
77012;SDS011;67260;53.130;17.982;2023-02-26T08:21:18;5.10;;;1.50;;
77012;SDS011;67260;53.130;17.982;2023-02-26T08:23:44;6.20;;;1.60;;
77012;SDS011;67260;53.130;17.982;2023-02-26T08:26:11;3.90;;;1.30;;
77012;SDS011;67260;53.130;17.982;2023-02-26T08:28:39;4.70;;;1.50;;
77012;SDS011;67260;53.130;17.982;2023-02-26T08:31:06;3.40;;;1.20;;
77012;SDS011;67260;53.130;17.982;2023-02-26T08:35:59;3.70;;;0.90;;
77012;SDS011;67260;53.130;17.982;2023-02-26T08:38:27;4.50;;;1.30;;
77012;SDS011;67260;53.130;17.982;2023-02-26T08:40:55;2.30;;;0.90;;
77012;SDS011;67260;53.130;17.982;2023-02-26T08:43:23;4.20;;;1.30;;
77012;SDS011;67260;53.130;17.982;2023-02-26T08:45:53;2.50;;;0.90;;
77012;SDS011;67260;53.130;17.982;2023-02-26T08:48:22;2.20;;;0.80;;
77012;SDS011;67260;53.130;17.982;2023-02-26T08:50:50;3.60;;;1.00;;
77012;SDS011;67260;53.130;17.982;2023-02-26T08:55:46;3.30;;;1.00;;
77012;SDS011;67260;53.130;17.982;2023-02-26T08:58:17;4.60;;;1.60;;
77012;SDS011;67260;53.130;17.982;2023-02-26T09:00:45;3.30;;;1.20;;
77012;SDS011;67260;53.130;17.982;2023-02-26T09:03:12;4.80;;;1.30;;
77012;SDS011;67260;53.130;17.982;2023-02-26T09:05:39;3.20;;;0.90;;
77012;SDS011;67260;53.130;17.982;2023-02-26T09:08:06;3.70;;;0.90;;
77012;SDS011;67260;53.130;17.982;2023-02-26T09:10:33;6.20;;;1.50;;
77012;SDS011;67260;53.130;17.982;2023-02-26T09:13:00;5.90;;;1.30;;
77012;SDS011;67260;53.130;17.982;2023-02-26T09:15:27;1.90;;;0.60;;
77012;SDS011;67260;53.130;17.982;2023-02-26T09:17:54;3.90;;;1.10;;
77012;SDS011;67260;53.130;17.982;2023-02-26T09:20:21;4.70;;;1.40;;
77012;SDS011;67260;53.130;17.982;2023-02-26T09:22:48;3.10;;;0.80;;
77012;SDS011;67260;53.130;17.982;2023-02-26T09:25:14;4.00;;;1.00;;
77012;SDS011;67260;53.130;17.982;2023-02-26T09:27:41;5.30;;;1.80;;
77012;SDS011;67260;53.130;17.982;2023-02-26T09:30:09;4.70;;;1.40;;
77012;SDS011;67260;53.130;17.982;2023-02-26T09:32:36;4.60;;;1.20;;
77012;SDS011;67260;53.130;17.982;2023-02-26T09:35:04;6.10;;;1.80;;
77012;SDS011;67260;53.130;17.982;2023-02-26T09:37:31;2.00;;;0.60;;
77012;SDS011;67260;53.130;17.982;2023-02-26T09:39:58;5.20;;;1.00;;
77012;SDS011;67260;53.130;17.982;2023-02-26T09:45:18;5.00;;;1.20;;
77012;SDS011;67260;53.130;17.982;2023-02-26T09:47:51;2.70;;;0.80;;
77012;SDS011;67260;53.130;17.982;2023-02-26T09:50:40;3.10;;;0.80;;
77012;SDS011;67260;53.130;17.982;2023-02-26T09:56:02;3.50;;;0.80;;
77012;SDS011;67260;53.130;17.982;2023-02-26T09:58:33;2.80;;;1.00;;
77012;SDS011;67260;53.130;17.982;2023-02-26T10:01:10;3.60;;;0.90;;
77012;SDS011;67260;53.130;17.982;2023-02-26T10:04:10;4.50;;;1.30;;
77012;SDS011;67260;53.130;17.982;2023-02-26T10:07:00;3.60;;;1.00;;
77012;SDS011;67260;53.130;17.982;2023-02-26T10:12:04;6.20;;;1.00;;
77012;SDS011;67260;53.130;17.982;2023-02-26T10:14:37;3.00;;;0.90;;
77012;SDS011;67260;53.130;17.982;2023-02-26T10:17:22;3.30;;;0.80;;
77012;SDS011;67260;53.130;17.982;2023-02-26T10:19:59;3.80;;;0.80;;
77012;SDS011;67260;53.130;17.982;2023-02-26T10:22:39;4.70;;;1.20;;
77012;SDS011;67260;53.130;17.982;2023-02-26T10:25:40;4.40;;;1.80;;
77012;SDS011;67260;53.130;17.982;2023-02-26T10:28:24;4.00;;;1.20;;
77012;SDS011;67260;53.130;17.982;2023-02-26T10:33:59;3.70;;;1.00;;
77012;SDS011;67260;53.130;17.982;2023-02-26T10:36:44;4.00;;;1.40;;
77012;SDS011;67260;53.130;17.982;2023-02-26T10:39:23;3.50;;;1.20;;
77012;SDS011;67260;53.130;17.982;2023-02-26T10:41:59;3.80;;;1.20;;
77012;SDS011;67260;53.130;17.982;2023-02-26T10:44:36;3.70;;;1.20;;
77012;SDS011;67260;53.130;17.982;2023-02-26T10:47:20;5.20;;;1.50;;
77012;SDS011;67260;53.130;17.982;2023-02-26T10:52:32;1.90;;;0.70;;
77012;SDS011;67260;53.130;17.982;2023-02-26T11:00:40;4.50;;;1.20;;
77012;SDS011;67260;53.130;17.982;2023-02-26T11:03:14;3.30;;;0.80;;
77012;SDS011;67260;53.130;17.982;2023-02-26T11:05:44;2.00;;;0.70;;
77012;SDS011;67260;53.130;17.982;2023-02-26T11:08:14;2.20;;;0.70;;
77012;SDS011;67260;53.130;17.982;2023-02-26T11:10:47;2.10;;;0.70;;
77012;SDS011;67260;53.130;17.982;2023-02-26T11:13:17;5.20;;;1.50;;
77012;SDS011;67260;53.130;17.982;2023-02-26T11:15:45;3.50;;;1.00;;
77012;SDS011;67260;53.130;17.982;2023-02-26T11:18:16;3.40;;;0.90;;
77012;SDS011;67260;53.130;17.982;2023-02-26T11:20:47;4.80;;;1.20;;
77012;SDS011;67260;53.130;17.982;2023-02-26T11:23:19;4.00;;;1.20;;
77012;SDS011;67260;53.130;17.982;2023-02-26T11:25:51;2.60;;;0.70;;
77012;SDS011;67260;53.130;17.982;2023-02-26T11:31:09;3.60;;;1.50;;
77012;SDS011;67260;53.130;17.982;2023-02-26T11:33:39;2.50;;;0.80;;
77012;SDS011;67260;53.130;17.982;2023-02-26T11:36:13;3.40;;;0.90;;
77012;SDS011;67260;53.130;17.982;2023-02-26T11:38:43;1.80;;;0.80;;
77012;SDS011;67260;53.130;17.982;2023-02-26T11:41:12;2.50;;;1.00;;
77012;SDS011;67260;53.130;17.982;2023-02-26T11:43:41;2.50;;;0.80;;
77012;SDS011;67260;53.130;17.982;2023-02-26T11:46:10;2.50;;;0.80;;
77012;SDS011;67260;53.130;17.982;2023-02-26T11:48:42;3.90;;;1.00;;
77012;SDS011;67260;53.130;17.982;2023-02-26T11:51:13;4.30;;;1.10;;
77012;SDS011;67260;53.130;17.982;2023-02-26T11:56:21;1.50;;;0.60;;
77012;SDS011;67260;53.130;17.982;2023-02-26T11:58:50;1.10;;;0.60;;
77012;SDS011;67260;53.130;17.982;2023-02-26T12:01:18;1.70;;;0.60;;
77012;SDS011;67260;53.130;17.982;2023-02-26T12:03:48;1.50;;;0.70;;
77012;SDS011;67260;53.130;17.982;2023-02-26T12:06:17;1.90;;;0.60;;
77012;SDS011;67260;53.130;17.982;2023-02-26T12:08:46;1.50;;;0.50;;
77012;SDS011;67260;53.130;17.982;2023-02-26T12:24:58;4.30;;;1.10;;
77012;SDS011;67260;53.130;17.982;2023-02-26T12:38:19;4.10;;;1.50;;
77012;SDS011;67260;53.130;17.982;2023-02-26T12:41:06;3.50;;;1.20;;
77012;SDS011;67260;53.130;17.982;2023-02-26T12:43:40;4.40;;;1.70;;
77012;SDS011;67260;53.130;17.982;2023-02-26T13:08:32;4.30;;;1.20;;
77012;SDS011;67260;53.130;17.982;2023-02-26T13:16:41;3.50;;;1.20;;
77012;SDS011;67260;53.130;17.982;2023-02-26T13:25:05;6.20;;;2.00;;
77012;SDS011;67260;53.130;17.982;2023-02-26T13:27:39;3.80;;;1.30;;
77012;SDS011;67260;53.130;17.982;2023-02-26T13:32:43;6.50;;;1.60;;
77012;SDS011;67260;53.130;17.982;2023-02-26T13:35:20;4.20;;;1.30;;
77012;SDS011;67260;53.130;17.982;2023-02-26T13:43:54;3.70;;;1.20;;
77012;SDS011;67260;53.130;17.982;2023-02-26T13:51:56;4.30;;;1.10;;
77012;SDS011;67260;53.130;17.982;2023-02-26T14:04:49;3.10;;;1.00;;
77012;SDS011;67260;53.130;17.982;2023-02-26T14:07:44;3.60;;;1.40;;
77012;SDS011;67260;53.130;17.982;2023-02-26T14:10:25;3.90;;;1.30;;
77012;SDS011;67260;53.130;17.982;2023-02-26T14:13:17;3.50;;;1.10;;
77012;SDS011;67260;53.130;17.982;2023-02-26T14:15:58;5.20;;;1.00;;
77012;SDS011;67260;53.130;17.982;2023-02-26T14:18:30;4.00;;;1.40;;
77012;SDS011;67260;53.130;17.982;2023-02-26T14:27:03;3.50;;;1.30;;
77012;SDS011;67260;53.130;17.982;2023-02-26T14:32:30;6.10;;;2.00;;
77012;SDS011;67260;53.130;17.982;2023-02-26T14:35:47;7.00;;;1.70;;
77012;SDS011;67260;53.130;17.982;2023-02-26T14:37:58;7.20;;;2.00;;
77012;SDS011;67260;53.130;17.982;2023-02-26T14:40:29;6.10;;;1.80;;
77012;SDS011;67260;53.130;17.982;2023-02-26T14:43:10;4.90;;;1.60;;
77012;SDS011;67260;53.130;17.982;2023-02-26T14:45:45;5.40;;;2.00;;
77012;SDS011;67260;53.130;17.982;2023-02-26T14:48:14;7.10;;;2.20;;
77012;SDS011;67260;53.130;17.982;2023-02-26T14:53:41;4.50;;;1.30;;
77012;SDS011;67260;53.130;17.982;2023-02-26T14:56:24;5.20;;;1.20;;
77012;SDS011;67260;53.130;17.982;2023-02-26T15:10:34;7.40;;;1.90;;
77012;SDS011;67260;53.130;17.982;2023-02-26T15:18:46;6.20;;;2.10;;
77012;SDS011;67260;53.130;17.982;2023-02-26T15:23:52;3.20;;;1.10;;
77012;SDS011;67260;53.130;17.982;2023-02-26T15:26:22;9.60;;;2.10;;
77012;SDS011;67260;53.130;17.982;2023-02-26T15:29:05;5.30;;;1.50;;
77012;SDS011;67260;53.130;17.982;2023-02-26T15:31:37;6.90;;;2.10;;
77012;SDS011;67260;53.130;17.982;2023-02-26T15:34:11;6.00;;;2.20;;
77012;SDS011;67260;53.130;17.982;2023-02-26T15:39:11;5.10;;;1.50;;
77012;SDS011;67260;53.130;17.982;2023-02-26T15:41:41;5.00;;;1.30;;
77012;SDS011;67260;53.130;17.982;2023-02-26T15:44:09;5.40;;;1.40;;
77012;SDS011;67260;53.130;17.982;2023-02-26T15:46:44;4.20;;;1.40;;
77012;SDS011;67260;53.130;17.982;2023-02-26T15:51:59;5.10;;;1.30;;
77012;SDS011;67260;53.130;17.982;2023-02-26T15:54:32;6.20;;;1.10;;
77012;SDS011;67260;53.130;17.982;2023-02-26T15:57:05;3.30;;;0.80;;
77012;SDS011;67260;53.130;17.982;2023-02-26T16:02:00;2.80;;;0.90;;
77012;SDS011;67260;53.130;17.982;2023-02-26T16:04:27;3.60;;;1.10;;
77012;SDS011;67260;53.130;17.982;2023-02-26T16:12:00;2.10;;;0.50;;
77012;SDS011;67260;53.130;17.982;2023-02-26T16:14:34;2.00;;;0.70;;
77012;SDS011;67260;53.130;17.982;2023-02-26T16:17:04;3.20;;;0.80;;
77012;SDS011;67260;53.130;17.982;2023-02-26T16:19:37;3.30;;;1.00;;
77012;SDS011;67260;53.130;17.982;2023-02-26T16:22:11;5.30;;;1.40;;
77012;SDS011;67260;53.130;17.982;2023-02-26T16:24:40;3.50;;;1.00;;
77012;SDS011;67260;53.130;17.982;2023-02-26T16:27:08;3.60;;;1.20;;
77012;SDS011;67260;53.130;17.982;2023-02-26T16:29:42;4.40;;;1.30;;
77012;SDS011;67260;53.130;17.982;2023-02-26T16:32:16;4.80;;;1.10;;
77012;SDS011;67260;53.130;17.982;2023-02-26T16:34:51;4.30;;;1.40;;
77012;SDS011;67260;53.130;17.982;2023-02-26T16:48:06;7.00;;;1.80;;
77012;SDS011;67260;53.130;17.982;2023-02-26T16:50:40;8.40;;;2.90;;
77012;SDS011;67260;53.130;17.982;2023-02-26T16:53:15;13.40;;;4.80;;
77012;SDS011;67260;53.130;17.982;2023-02-26T16:55:46;19.10;;;7.40;;
77012;SDS011;67260;53.130;17.982;2023-02-26T16:58:17;13.40;;;5.00;;
77012;SDS011;67260;53.130;17.982;2023-02-26T17:00:48;16.00;;;5.70;;
77012;SDS011;67260;53.130;17.982;2023-02-26T17:03:19;14.30;;;4.40;;
77012;SDS011;67260;53.130;17.982;2023-02-26T17:05:58;10.60;;;3.80;;
77012;SDS011;67260;53.130;17.982;2023-02-26T17:08:32;12.80;;;5.50;;
77012;SDS011;67260;53.130;17.982;2023-02-26T17:11:04;12.60;;;4.20;;
77012;SDS011;67260;53.130;17.982;2023-02-26T17:13:34;23.10;;;6.70;;
77012;SDS011;67260;53.130;17.982;2023-02-26T17:16:04;21.80;;;7.70;;
77012;SDS011;67260;53.130;17.982;2023-02-26T17:18:32;18.90;;;6.60;;
77012;SDS011;67260;53.130;17.982;2023-02-26T17:20:59;17.20;;;6.50;;
77012;SDS011;67260;53.130;17.982;2023-02-26T17:23:30;19.40;;;5.80;;
77012;SDS011;67260;53.130;17.982;2023-02-26T17:26:02;18.50;;;7.00;;
77012;SDS011;67260;53.130;17.982;2023-02-26T17:28:35;15.20;;;5.30;;
77012;SDS011;67260;53.130;17.982;2023-02-26T17:31:06;15.90;;;5.40;;
77012;SDS011;67260;53.130;17.982;2023-02-26T17:33:33;12.40;;;4.10;;
77012;SDS011;67260;53.130;17.982;2023-02-26T17:36:02;16.10;;;4.90;;
77012;SDS011;67260;53.130;17.982;2023-02-26T17:38:30;11.90;;;4.10;;
77012;SDS011;67260;53.130;17.982;2023-02-26T17:40:58;11.20;;;4.00;;
77012;SDS011;67260;53.130;17.982;2023-02-26T17:43:26;13.10;;;3.90;;
77012;SDS011;67260;53.130;17.982;2023-02-26T17:45:53;14.90;;;4.80;;
77012;SDS011;67260;53.130;17.982;2023-02-26T17:48:21;16.10;;;4.90;;
77012;SDS011;67260;53.130;17.982;2023-02-26T17:50:49;14.00;;;4.70;;
77012;SDS011;67260;53.130;17.982;2023-02-26T17:53:20;12.80;;;4.70;;
77012;SDS011;67260;53.130;17.982;2023-02-26T17:55:49;17.10;;;5.90;;
77012;SDS011;67260;53.130;17.982;2023-02-26T17:58:21;15.60;;;5.30;;
77012;SDS011;67260;53.130;17.982;2023-02-26T18:00:53;15.20;;;4.80;;
77012;SDS011;67260;53.130;17.982;2023-02-26T18:03:20;17.60;;;5.60;;
77012;SDS011;67260;53.130;17.982;2023-02-26T18:05:48;17.10;;;5.50;;
77012;SDS011;67260;53.130;17.982;2023-02-26T18:08:18;18.40;;;5.90;;
77012;SDS011;67260;53.130;17.982;2023-02-26T18:10:48;17.50;;;5.50;;
77012;SDS011;67260;53.130;17.982;2023-02-26T18:13:16;18.80;;;6.40;;
77012;SDS011;67260;53.130;17.982;2023-02-26T18:15:43;18.60;;;6.00;;
77012;SDS011;67260;53.130;17.982;2023-02-26T18:18:11;14.50;;;5.50;;
77012;SDS011;67260;53.130;17.982;2023-02-26T18:20:39;15.00;;;5.30;;
77012;SDS011;67260;53.130;17.982;2023-02-26T18:23:06;10.90;;;3.60;;
77012;SDS011;67260;53.130;17.982;2023-02-26T18:25:33;11.70;;;3.90;;
77012;SDS011;67260;53.130;17.982;2023-02-26T18:28:02;10.00;;;3.20;;
77012;SDS011;67260;53.130;17.982;2023-02-26T18:30:31;12.10;;;3.80;;
77012;SDS011;67260;53.130;17.982;2023-02-26T18:33:00;7.60;;;2.30;;
77012;SDS011;67260;53.130;17.982;2023-02-26T18:35:27;5.80;;;2.30;;
77012;SDS011;67260;53.130;17.982;2023-02-26T18:37:56;7.20;;;2.10;;
77012;SDS011;67260;53.130;17.982;2023-02-26T18:40:24;5.90;;;1.90;;
77012;SDS011;67260;53.130;17.982;2023-02-26T18:42:52;5.80;;;2.00;;
77012;SDS011;67260;53.130;17.982;2023-02-26T18:45:19;8.30;;;2.40;;
77012;SDS011;67260;53.130;17.982;2023-02-26T18:47:46;4.60;;;1.30;;
77012;SDS011;67260;53.130;17.982;2023-02-26T18:50:14;6.30;;;2.00;;
77012;SDS011;67260;53.130;17.982;2023-02-26T18:52:43;7.30;;;2.20;;
77012;SDS011;67260;53.130;17.982;2023-02-26T18:55:10;6.30;;;2.00;;
77012;SDS011;67260;53.130;17.982;2023-02-26T18:57:38;4.60;;;1.30;;
77012;SDS011;67260;53.130;17.982;2023-02-26T19:00:06;2.50;;;0.90;;
77012;SDS011;67260;53.130;17.982;2023-02-26T19:02:34;3.40;;;1.00;;